ENSH/SVJ METAR and TAF weather

Enter ICAO airport designator
Station Type Date Time Source
ENSH METAR 2020/11/28 12:50 UTC NOAA

ENSH 281250Z 21013KT 9999 -SHRA FEW018 BKN022 07/06 Q1019 RMK WIND 150FT 18013KT


Station Type Date Time Source
ENSH Decoded METAR 2020/11/28 12:50 UTC NOAA

Svolvaer / Helle, Norway (ENSH) 68-15N 014-40E 9M
Nov 28, 2020 - 07:50 AM EST / 2020.11.28 1250 UTC
Wind: from the SSW (210 degrees) at 15 MPH (13 KT):0
Visibility: greater than 7 mile(s):0
Sky conditions: mostly cloudy
Weather: light rain showers
Temperature: 44 F (7 C)
Dew Point: 42 F (6 C)
Relative Humidity: 93%
Pressure (altimeter): 30.09 in. Hg (1019 hPa)
ob: ENSH 281250Z 21013KT 9999 -SHRA FEW018 BKN022 07/06 Q1019 RMK WIND 150FT 18013KT
cycle: 13

Station Type Date Time Source
ENSH TAF UTC NOAA

Error!

Example: see airport list